createdAt,value
2017-10-17T00:00:58.405Z,18.73
2017-10-17T00:03:27.837Z,17.50
2017-10-17T00:05:57.010Z,18.93
2017-10-17T00:08:26.207Z,18.03
2017-10-17T00:10:55.466Z,17.47
2017-10-17T00:13:25.552Z,18.63
2017-10-17T00:15:55.248Z,17.10
2017-10-17T00:18:25.212Z,17.13
2017-10-17T00:20:55.178Z,18.67
2017-10-17T00:23:24.382Z,17.13
2017-10-17T00:25:54.584Z,19.50
2017-10-17T00:28:23.786Z,17.90
2017-10-17T00:30:53.804Z,18.17
2017-10-17T00:33:24.346Z,17.90
2017-10-17T00:39:09.481Z,18.10
2017-10-17T00:41:38.669Z,16.67
2017-10-17T00:44:08.038Z,18.27
2017-10-17T00:46:37.343Z,18.00
2017-10-17T00:49:08.378Z,17.03
2017-10-17T00:51:38.741Z,19.40
2017-10-17T00:54:07.904Z,17.53
2017-10-17T00:56:37.137Z,19.53
2017-10-17T00:59:08.703Z,16.90
2017-10-17T01:01:37.919Z,17.27
2017-10-17T01:04:07.148Z,17.17
2017-10-17T01:06:36.506Z,16.37
2017-10-17T01:09:06.519Z,18.70
2017-10-17T01:11:35.944Z,19.33
2017-10-17T01:14:06.790Z,18.90
2017-10-17T01:16:36.745Z,18.13
2017-10-17T01:19:05.918Z,17.90
2017-10-17T01:21:36.019Z,18.10
2017-10-17T01:24:09.024Z,19.23
2017-10-17T01:26:38.472Z,18.30
2017-10-17T01:29:15.578Z,19.03
2017-10-17T01:31:47.866Z,18.83
2017-10-17T01:34:40.224Z,17.80
2017-10-17T01:37:10.316Z,19.70
2017-10-17T01:39:44.289Z,18.43
2017-10-17T01:42:16.441Z,18.10
2017-10-17T01:45:10.475Z,18.00
2017-10-17T01:47:39.699Z,17.13
2017-10-17T01:50:14.474Z,18.03
2017-10-17T01:52:45.223Z,17.83
2017-10-17T01:55:15.255Z,18.10
2017-10-17T01:57:44.435Z,18.37
2017-10-17T02:00:15.654Z,19.47
2017-10-17T02:02:44.816Z,17.63
2017-10-17T02:05:14.014Z,18.93
2017-10-17T02:07:44.681Z,18.93
2017-10-17T02:10:26.242Z,19.30
2017-10-17T02:12:58.473Z,18.77
2017-10-17T02:15:27.609Z,18.33
2017-10-17T02:18:01.950Z,17.63
2017-10-17T02:20:31.863Z,18.80
2017-10-17T02:23:01.162Z,18.83
2017-10-17T02:25:30.786Z,18.20
2017-10-17T02:28:32.409Z,18.17
2017-10-17T02:31:02.547Z,20.00
2017-10-17T02:33:35.089Z,18.50
2017-10-17T02:36:04.806Z,18.13
2017-10-17T02:38:34.000Z,21.03
2017-10-17T02:41:05.444Z,20.33
2017-10-17T02:43:39.973Z,19.80
2017-10-17T02:46:10.545Z,19.90
2017-10-17T02:48:58.507Z,19.70
2017-10-17T02:51:27.724Z,19.00
2017-10-17T02:53:57.654Z,19.63
2017-10-17T02:56:26.851Z,19.87
2017-10-17T02:58:56.079Z,20.80
2017-10-17T03:01:49.582Z,20.30
2017-10-17T03:07:22.237Z,21.40
2017-10-17T03:09:52.570Z,21.07
2017-10-17T03:12:21.737Z,21.50
2017-10-17T03:18:16.680Z,20.07
2017-10-17T03:20:45.856Z,20.93
2017-10-17T03:23:30.288Z,21.27
2017-10-17T03:26:00.087Z,22.50
2017-10-17T03:28:32.173Z,21.80
2017-10-17T03:31:06.404Z,22.83
2017-10-17T03:33:35.567Z,23.33
2017-10-17T03:39:05.666Z,22.97
2017-10-17T03:41:35.450Z,22.60
2017-10-17T03:47:25.022Z,22.83
2017-10-17T03:49:56.931Z,23.43
2017-10-17T03:52:30.558Z,23.20
2017-10-17T03:54:59.790Z,23.13
2017-10-17T03:57:43.369Z,23.73
2017-10-17T04:00:12.606Z,23.60
2017-10-17T04:02:42.540Z,25.60
2017-10-17T04:05:21.422Z,23.80
2017-10-17T04:08:03.998Z,22.93
2017-10-17T04:10:40.023Z,24.60
2017-10-17T04:16:22.386Z,26.40
2017-10-17T04:19:06.808Z,24.97
2017-10-17T04:21:37.082Z,25.17
2017-10-17T04:24:14.726Z,25.80
2017-10-17T04:26:50.445Z,25.17
2017-10-17T04:29:35.607Z,25.67
2017-10-17T04:32:05.730Z,23.60
2017-10-17T04:34:42.203Z,24.43
2017-10-17T04:37:17.649Z,25.53
2017-10-17T04:39:46.831Z,26.43
2017-10-17T04:42:48.023Z,25.83
2017-10-17T04:49:23.025Z,26.47
2017-10-17T04:54:55.427Z,26.47
2017-10-17T04:57:25.374Z,27.93
2017-10-17T04:59:59.567Z,26.50
2017-10-17T05:02:57.638Z,26.67
2017-10-17T05:08:59.664Z,27.83
2017-10-17T05:11:29.634Z,28.07
2017-10-17T05:17:53.465Z,26.77
2017-10-17T05:26:45.044Z,26.40
2017-10-17T05:29:18.265Z,26.67
2017-10-17T05:31:48.199Z,28.37
2017-10-17T05:34:21.799Z,26.87
2017-10-17T05:37:12.377Z,26.70
2017-10-17T05:39:48.159Z,26.00
2017-10-17T05:42:20.102Z,26.93
2017-10-17T05:44:56.459Z,24.83
2017-10-17T05:47:30.872Z,25.07
2017-10-17T05:50:16.454Z,23.60
2017-10-17T05:52:46.373Z,25.23
2017-10-17T05:55:16.254Z,24.97
2017-10-17T05:57:45.707Z,25.07
2017-10-17T06:00:14.807Z,23.17
2017-10-17T06:02:43.978Z,22.33
2017-10-17T06:05:14.461Z,22.63
2017-10-17T06:07:43.628Z,23.57
2017-10-17T06:10:12.746Z,23.07
2017-10-17T06:12:42.358Z,22.80
2017-10-17T06:15:11.479Z,23.20
2017-10-17T06:17:40.674Z,23.03
2017-10-17T06:20:09.821Z,23.07
2017-10-17T06:22:38.966Z,23.00
2017-10-17T06:25:08.119Z,24.20
2017-10-17T06:27:37.705Z,24.83
2017-10-17T06:30:06.884Z,21.73
2017-10-17T06:32:35.970Z,21.63
2017-10-17T06:35:05.477Z,23.13
2017-10-17T06:37:34.610Z,20.87
2017-10-17T06:40:03.714Z,21.87
2017-10-17T06:42:32.838Z,22.93
2017-10-17T06:45:02.735Z,23.77
2017-10-17T06:47:31.931Z,19.40
2017-10-17T06:50:02.123Z,20.07
2017-10-17T06:52:32.048Z,19.03
2017-10-17T06:55:01.977Z,18.43
2017-10-17T06:57:31.929Z,17.60
2017-10-17T07:00:01.035Z,16.70
2017-10-17T07:02:30.188Z,18.20
2017-10-17T07:04:59.694Z,15.57
2017-10-17T07:07:28.824Z,16.93
2017-10-17T07:09:58.746Z,15.70
2017-10-17T07:12:29.883Z,15.70
2017-10-17T07:15:00.977Z,13.67
2017-10-17T07:17:30.876Z,13.43
2017-10-17T07:20:01.624Z,12.23
2017-10-17T07:22:32.603Z,12.83
2017-10-17T07:25:01.774Z,14.00
2017-10-17T07:27:30.888Z,11.90
2017-10-17T07:30:00.258Z,10.77
2017-10-17T07:32:29.359Z,10.30
2017-10-17T07:34:59.235Z,10.50
2017-10-17T07:37:29.287Z,9.83
2017-10-17T07:39:58.449Z,10.13
2017-10-17T07:42:27.534Z,9.97
2017-10-17T07:44:57.704Z,8.87
2017-10-17T07:47:27.358Z,11.43
2017-10-17T07:49:56.482Z,9.80
2017-10-17T07:52:26.006Z,8.93
2017-10-17T07:54:55.898Z,8.70
2017-10-17T07:57:25.014Z,7.73
2017-10-17T07:59:54.196Z,9.10
2017-10-17T08:02:23.278Z,8.47
2017-10-17T08:04:53.139Z,9.40
2017-10-17T08:07:22.301Z,8.40
2017-10-17T08:09:51.414Z,8.40
2017-10-17T08:12:20.537Z,9.27
2017-10-17T08:14:49.860Z,8.43
2017-10-17T08:17:18.947Z,9.73
2017-10-17T08:19:48.052Z,9.20
2017-10-17T08:22:17.545Z,8.87
2017-10-17T08:24:46.656Z,8.83
2017-10-17T08:27:15.806Z,10.00
2017-10-17T08:29:45.052Z,8.20
2017-10-17T08:32:14.153Z,7.57
2017-10-17T08:34:43.248Z,8.80
2017-10-17T08:37:12.752Z,8.97
2017-10-17T08:39:42.664Z,9.40
2017-10-17T08:42:12.357Z,8.50
2017-10-17T08:44:41.520Z,9.23
2017-10-17T08:47:10.674Z,8.47
2017-10-17T08:49:39.823Z,8.07
2017-10-17T08:52:09.126Z,7.07
2017-10-17T08:54:38.273Z,7.60
2017-10-17T08:57:07.571Z,7.80
2017-10-17T08:59:36.973Z,6.97
2017-10-17T09:02:06.107Z,7.90
2017-10-17T09:04:35.202Z,7.77
2017-10-17T09:07:05.475Z,7.80
2017-10-17T09:09:34.640Z,6.60
2017-10-17T09:12:04.543Z,8.40
2017-10-17T09:14:33.949Z,7.90
2017-10-17T09:17:03.028Z,7.73
2017-10-17T09:19:32.137Z,8.90
2017-10-17T09:22:02.783Z,7.97
2017-10-17T09:24:31.879Z,8.77
2017-10-17T09:27:00.980Z,7.17
2017-10-17T09:29:30.482Z,7.57
2017-10-17T09:32:00.323Z,7.97
2017-10-17T09:34:29.471Z,7.83
2017-10-17T09:37:04.400Z,5.63
2017-10-17T09:39:33.864Z,6.83
2017-10-17T09:42:02.978Z,7.80
2017-10-17T09:44:33.370Z,7.27
2017-10-17T09:47:02.455Z,7.07
2017-10-17T09:49:32.311Z,6.63
2017-10-17T09:52:03.111Z,8.17
2017-10-17T09:54:32.272Z,5.70
2017-10-17T09:57:02.382Z,7.93
2017-10-17T09:59:32.343Z,8.63
2017-10-17T10:02:01.516Z,7.80
2017-10-17T10:04:30.645Z,8.13
2017-10-17T10:06:59.800Z,8.53
2017-10-17T10:09:29.428Z,6.93
2017-10-17T10:11:58.529Z,7.40
2017-10-17T10:14:27.854Z,8.93
2017-10-17T10:16:56.972Z,6.60
2017-10-17T10:19:26.083Z,6.70
2017-10-17T10:21:55.943Z,6.30
2017-10-17T10:24:25.091Z,6.83
2017-10-17T10:26:55.007Z,6.57
2017-10-17T10:29:25.278Z,7.37
2017-10-17T10:31:57.492Z,7.63
2017-10-17T10:34:27.153Z,7.90
2017-10-17T10:36:56.251Z,6.87
2017-10-17T10:39:25.363Z,8.07
2017-10-17T10:41:56.323Z,7.10
2017-10-17T10:44:25.835Z,6.27
2017-10-17T10:46:54.927Z,6.30
2017-10-17T10:49:24.554Z,7.60
2017-10-17T10:51:53.641Z,8.90
2017-10-17T10:54:22.821Z,11.40
2017-10-17T10:56:52.042Z,6.53
2017-10-17T10:59:21.132Z,7.87
2017-10-17T11:01:50.244Z,6.40
2017-10-17T11:04:20.772Z,8.43
2017-10-17T11:06:49.871Z,8.10
2017-10-17T11:09:18.960Z,6.90
2017-10-17T11:11:49.090Z,7.00
2017-10-17T11:14:18.239Z,7.70
2017-10-17T11:16:50.210Z,7.50
2017-10-17T11:19:21.322Z,7.83
2017-10-17T11:21:50.417Z,7.23
2017-10-17T11:24:19.521Z,7.33
2017-10-17T11:26:48.841Z,7.03
2017-10-17T11:29:17.944Z,8.33
2017-10-17T11:31:47.039Z,7.50
2017-10-17T11:34:16.961Z,7.70
2017-10-17T11:36:46.860Z,8.13
2017-10-17T11:39:15.983Z,7.50
2017-10-17T11:42:03.755Z,6.57
2017-10-17T11:44:32.853Z,11.67
2017-10-17T11:47:02.717Z,9.77
2017-10-17T11:49:32.660Z,6.20
2017-10-17T11:52:02.688Z,8.97
2017-10-17T11:54:31.826Z,9.83
2017-10-17T11:57:01.887Z,12.83
2017-10-17T11:59:30.962Z,10.60
2017-10-17T12:02:00.168Z,12.23
2017-10-17T12:04:30.702Z,8.37
2017-10-17T12:06:59.834Z,8.57
2017-10-17T12:09:28.935Z,7.37
2017-10-17T12:11:58.476Z,7.30
2017-10-17T12:14:29.298Z,12.30
2017-10-17T12:16:58.410Z,11.50
2017-10-17T12:19:27.547Z,8.30
2017-10-17T12:21:57.431Z,6.97
2017-10-17T12:24:26.507Z,7.67
2017-10-17T12:26:56.220Z,9.70
2017-10-17T12:29:25.322Z,9.00
2017-10-17T12:31:54.421Z,15.30
2017-10-17T12:34:23.845Z,10.70
2017-10-17T12:36:52.931Z,12.87
2017-10-17T12:39:23.458Z,10.60
2017-10-17T12:41:53.023Z,9.50
2017-10-17T12:44:22.151Z,9.60
2017-10-17T12:46:51.256Z,8.77
2017-10-17T12:49:21.062Z,10.80
2017-10-17T12:51:50.418Z,8.13
2017-10-17T12:54:19.515Z,9.23
2017-10-17T12:56:49.585Z,7.20
2017-10-17T12:59:18.722Z,9.57
2017-10-17T13:01:47.849Z,7.77
2017-10-17T13:04:17.018Z,7.67
2017-10-17T13:06:46.760Z,6.30
2017-10-17T13:09:15.895Z,7.00
2017-10-17T13:11:45.489Z,7.70
2017-10-17T13:14:15.198Z,7.63
2017-10-17T13:16:44.395Z,7.07
2017-10-17T13:19:13.650Z,8.23
2017-10-17T13:21:43.578Z,10.40
2017-10-17T13:24:13.469Z,8.40
2017-10-17T13:26:42.927Z,8.97
2017-10-17T13:29:12.878Z,9.20
2017-10-17T13:31:42.042Z,9.07
2017-10-17T13:34:11.961Z,9.50
2017-10-17T13:36:41.102Z,8.30
2017-10-17T13:39:10.273Z,7.20
2017-10-17T13:41:40.028Z,6.33
2017-10-17T13:44:09.921Z,7.10
2017-10-17T13:46:39.037Z,5.00
2017-10-17T13:49:08.201Z,8.60
2017-10-17T13:51:37.415Z,7.43
2017-10-17T13:54:06.522Z,7.53
2017-10-17T13:56:35.710Z,8.93
2017-10-17T13:59:04.791Z,8.03
2017-10-17T14:01:33.911Z,9.07
2017-10-17T14:04:03.805Z,8.20
2017-10-17T14:06:33.008Z,9.33
2017-10-17T14:09:02.299Z,8.97
2017-10-17T14:11:32.061Z,8.70
2017-10-17T14:14:01.171Z,6.57
2017-10-17T14:16:30.282Z,7.80
2017-10-17T14:18:59.431Z,10.77
2017-10-17T14:21:29.282Z,10.67
2017-10-17T14:23:58.407Z,7.10
2017-10-17T14:26:27.538Z,6.57
2017-10-17T14:28:56.737Z,5.97
2017-10-17T14:31:25.843Z,7.40
2017-10-17T14:33:55.926Z,6.40
2017-10-17T14:36:25.043Z,7.40
2017-10-17T14:38:54.908Z,5.93
2017-10-17T14:41:24.070Z,7.63
2017-10-17T14:43:53.183Z,5.30
2017-10-17T14:46:22.314Z,5.53
2017-10-17T14:48:51.585Z,5.03
2017-10-17T14:51:21.466Z,7.30
2017-10-17T14:53:50.587Z,5.97
2017-10-17T14:56:20.155Z,5.43
2017-10-17T14:58:50.018Z,7.53
2017-10-17T15:01:20.124Z,6.93
2017-10-17T15:03:50.517Z,5.80
2017-10-17T15:06:19.634Z,6.90
2017-10-17T15:08:48.734Z,6.63
2017-10-17T15:11:19.151Z,5.17
2017-10-17T15:13:48.286Z,10.67
2017-10-17T15:16:17.434Z,6.37
2017-10-17T15:18:48.654Z,6.03
2017-10-17T15:21:17.747Z,5.23
2017-10-17T15:23:46.867Z,5.80
2017-10-17T15:26:16.281Z,6.67
2017-10-17T15:28:46.254Z,7.50
2017-10-17T15:31:15.754Z,5.20
2017-10-17T15:33:44.959Z,5.50
2017-10-17T15:36:14.929Z,7.93
2017-10-17T15:38:44.069Z,6.97
2017-10-17T15:41:13.614Z,5.50
2017-10-17T15:43:43.545Z,6.77
2017-10-17T15:46:12.693Z,6.90
2017-10-17T15:48:42.705Z,5.93
2017-10-17T15:51:11.837Z,5.90
2017-10-17T15:53:41.303Z,4.00
2017-10-17T15:56:10.810Z,6.53
2017-10-17T15:58:39.976Z,5.00
2017-10-17T16:01:09.103Z,6.00
2017-10-17T16:03:38.272Z,5.73
2017-10-17T16:06:07.422Z,7.00
2017-10-17T16:08:37.309Z,7.63
2017-10-17T16:11:08.818Z,7.43
2017-10-17T16:13:38.013Z,5.40
2017-10-17T16:16:07.225Z,6.03
2017-10-17T16:18:36.401Z,10.43
2017-10-17T16:21:05.583Z,5.83
2017-10-17T16:23:34.690Z,6.27
2017-10-17T16:26:04.896Z,5.57
2017-10-17T16:28:34.007Z,6.50
2017-10-17T16:31:04.107Z,5.67
2017-10-17T16:33:34.025Z,5.80
2017-10-17T16:36:03.200Z,6.30
2017-10-17T16:38:32.315Z,8.73
2017-10-17T16:41:01.451Z,7.67
2017-10-17T16:43:31.332Z,5.97
2017-10-17T16:46:00.442Z,6.10
2017-10-17T16:48:29.849Z,6.50
2017-10-17T16:51:00.879Z,7.47
2017-10-17T16:53:31.973Z,6.07
2017-10-17T16:56:01.074Z,7.23
2017-10-17T16:58:30.200Z,6.70
2017-10-17T17:00:59.366Z,7.40
2017-10-17T17:03:29.006Z,6.87
2017-10-17T17:05:58.436Z,7.50
2017-10-17T17:08:27.632Z,8.63
2017-10-17T17:10:56.779Z,5.37
2017-10-17T17:13:25.874Z,6.30
2017-10-17T17:15:55.613Z,6.97
2017-10-17T17:18:24.724Z,8.10
2017-10-17T17:20:54.495Z,5.67
2017-10-17T17:23:24.670Z,6.40
2017-10-17T17:25:53.910Z,7.40
2017-10-17T17:28:23.778Z,6.57
2017-10-17T17:30:53.301Z,8.33
2017-10-17T17:33:22.931Z,6.87
2017-10-17T17:35:52.592Z,7.53
2017-10-17T17:38:22.683Z,6.90
2017-10-17T17:40:51.783Z,6.93
2017-10-17T17:43:20.966Z,6.00
2017-10-17T17:45:53.265Z,6.63
2017-10-17T17:48:22.418Z,5.90
2017-10-17T17:50:51.599Z,6.80
2017-10-17T17:53:20.784Z,7.43
2017-10-17T17:55:49.955Z,6.30
2017-10-17T17:58:19.052Z,5.40
2017-10-17T18:00:48.607Z,6.00
2017-10-17T18:03:20.978Z,6.67
2017-10-17T18:05:50.134Z,7.40
2017-10-17T18:08:20.552Z,8.07
2017-10-17T18:10:49.719Z,8.40
2017-10-17T18:13:19.618Z,6.77
2017-10-17T18:15:48.714Z,6.43
2017-10-17T18:18:17.834Z,7.50
2017-10-17T18:20:48.129Z,8.80
2017-10-17T18:23:18.012Z,5.87
2017-10-17T18:25:47.177Z,6.93
2017-10-17T18:28:18.011Z,6.57
2017-10-17T18:30:47.889Z,9.33
2017-10-17T18:33:17.058Z,7.90
2017-10-17T18:35:48.448Z,8.20
2017-10-17T18:38:20.298Z,7.77
2017-10-17T18:40:51.366Z,8.73
2017-10-17T18:43:20.619Z,7.63
2017-10-17T18:45:49.781Z,9.10
2017-10-17T18:48:19.357Z,8.40
2017-10-17T18:50:48.500Z,7.70
2017-10-17T18:53:18.390Z,7.73
2017-10-17T18:55:47.577Z,6.40
2017-10-17T18:58:16.795Z,7.27
2017-10-17T19:00:45.916Z,7.10
2017-10-17T19:03:15.197Z,6.53
2017-10-17T19:05:44.526Z,7.67
2017-10-17T19:08:14.718Z,7.17
2017-10-17T19:10:46.598Z,8.17
2017-10-17T19:13:16.548Z,6.83
2017-10-17T19:15:47.932Z,7.70
2017-10-17T19:18:17.134Z,8.77
2017-10-17T19:20:47.292Z,8.97
2017-10-17T19:23:17.282Z,7.47
2017-10-17T19:25:46.894Z,8.63
2017-10-17T19:28:16.339Z,9.33
2017-10-17T19:30:45.898Z,8.57
2017-10-17T19:33:15.819Z,8.77
2017-10-17T19:35:45.015Z,8.50
2017-10-17T19:38:15.471Z,8.10
2017-10-17T19:40:47.480Z,8.53
2017-10-17T19:43:17.133Z,9.50
2017-10-17T19:45:46.322Z,7.73
2017-10-17T19:48:15.695Z,7.37
2017-10-17T19:50:46.167Z,8.80
2017-10-17T19:53:15.492Z,8.83
2017-10-17T19:55:44.719Z,6.10
2017-10-17T19:58:14.123Z,7.53
2017-10-17T20:00:43.696Z,8.50
2017-10-17T20:03:14.914Z,7.63
2017-10-17T20:05:44.211Z,7.90
2017-10-17T20:08:13.514Z,8.97
2017-10-17T20:10:43.635Z,7.10
2017-10-17T20:13:13.327Z,7.43
2017-10-17T20:15:43.212Z,7.60
2017-10-17T20:18:13.088Z,7.17
2017-10-17T20:20:42.447Z,7.80
2017-10-17T20:23:12.788Z,8.50
2017-10-17T20:25:46.059Z,8.93
2017-10-17T20:28:16.591Z,9.07
2017-10-17T20:30:49.703Z,8.80
2017-10-17T20:33:19.607Z,8.40
2017-10-17T20:35:48.774Z,8.57
2017-10-17T20:38:18.493Z,7.27
2017-10-17T20:40:47.775Z,8.47
2017-10-17T20:43:16.985Z,9.73
2017-10-17T20:45:46.999Z,8.07
2017-10-17T20:48:16.197Z,8.40
2017-10-17T20:50:45.442Z,9.80
2017-10-17T20:53:16.164Z,9.00
2017-10-17T20:55:45.510Z,8.30
2017-10-17T20:58:17.382Z,8.33
2017-10-17T21:00:47.887Z,7.57
2017-10-17T21:03:17.019Z,8.20
2017-10-17T21:05:47.134Z,8.40
2017-10-17T21:08:16.498Z,9.37
2017-10-17T21:10:46.183Z,8.57
2017-10-17T21:13:16.205Z,10.93
2017-10-17T21:15:46.452Z,7.70
2017-10-17T21:18:15.685Z,10.70
2017-10-17T21:20:44.908Z,9.67
2017-10-17T21:23:14.338Z,9.53
2017-10-17T21:25:43.561Z,9.67
2017-10-17T21:28:12.936Z,9.07
2017-10-17T21:30:43.533Z,11.57
2017-10-17T21:33:13.888Z,8.80
2017-10-17T21:35:43.048Z,9.23
2017-10-17T21:38:13.019Z,7.23
2017-10-17T21:40:42.139Z,9.43
2017-10-17T21:43:12.184Z,9.47
2017-10-17T21:45:41.383Z,9.90
2017-10-17T21:48:10.560Z,11.03
2017-10-17T21:50:40.652Z,9.73
2017-10-17T21:53:10.305Z,10.07
2017-10-17T21:55:39.412Z,13.70
2017-10-17T21:58:08.555Z,10.77
2017-10-17T22:00:55.734Z,9.50
2017-10-17T22:03:25.580Z,8.77
2017-10-17T22:05:54.721Z,9.60
2017-10-17T22:08:23.868Z,11.30
2017-10-17T22:10:53.768Z,11.20
2017-10-17T22:13:22.940Z,10.10
2017-10-17T22:15:52.466Z,10.17
2017-10-17T22:18:21.592Z,9.57
2017-10-17T22:20:50.710Z,9.80
2017-10-17T22:23:20.525Z,9.00
2017-10-17T22:25:49.638Z,8.40
2017-10-17T22:28:19.506Z,8.10
2017-10-17T22:30:49.510Z,10.20
2017-10-17T22:33:18.627Z,9.13
2017-10-17T22:35:48.519Z,10.03
2017-10-17T22:38:17.970Z,8.80
2017-10-17T22:40:48.793Z,8.97
2017-10-17T22:43:17.915Z,10.83
2017-10-17T22:45:47.120Z,8.53
2017-10-17T22:48:16.294Z,10.30
2017-10-17T22:50:45.436Z,10.30
2017-10-17T22:53:15.773Z,9.40
2017-10-17T22:55:44.908Z,11.07
2017-10-17T22:58:14.882Z,11.33
2017-10-17T23:00:44.151Z,9.40
2017-10-17T23:03:14.994Z,10.23
2017-10-17T23:05:44.190Z,8.90
2017-10-17T23:08:14.701Z,8.70
2017-10-17T23:10:44.768Z,13.20
2017-10-17T23:13:13.959Z,12.17
2017-10-17T23:15:43.217Z,10.17
2017-10-17T23:21:26.856Z,9.93
2017-10-17T23:23:55.983Z,8.83
2017-10-17T23:26:25.174Z,11.07
2017-10-17T23:28:54.694Z,10.30
2017-10-17T23:31:23.789Z,11.20
2017-10-17T23:33:52.891Z,12.27
2017-10-17T23:36:22.328Z,11.63
2017-10-17T23:38:51.483Z,11.30
2017-10-17T23:41:21.369Z,11.47
2017-10-17T23:43:51.053Z,10.93
2017-10-17T23:46:20.178Z,11.50
2017-10-17T23:48:49.306Z,12.20
2017-10-17T23:51:18.471Z,10.43
2017-10-17T23:53:47.604Z,11.60
2017-10-17T23:56:16.764Z,11.03
2017-10-17T23:58:46.693Z,10.57
